This is the latest recevied weather packets stored in our database for station/object N5WAY-13. If no packets are shown the sender has not sent any weather packets the latest 10 day(s).
| Time | Temp. | Humidity | Pressure | Rain* | Wind** | Luminosity | Snow |
|---|---|---|---|---|---|---|---|
| 1777536016 | 16.11° C | 16% | 1014.1 hPa | 0 mm | - | 0 W/m² | - |
| 1777534817 | 16.11° C | 16% | 1014.3 hPa | 0 mm | - | 0 W/m² | - |
| 1777532417 | 16.67° C | 16% | 1014.6 hPa | 0 mm | - | 0 W/m² | - |
| 1777527635 | 18.33° C | 15% | 1014.3 hPa | 0 mm | - | 0 W/m² | - |
| 1777521637 | 20.56° C | 12% | 1014 hPa | 0 mm | - | 0 W/m² | - |
| 1777520417 | 20.56° C | 11% | 1013.9 hPa | 0 mm | - | 0 W/m² | - |
| 1777517418 | 21.11° C | 10% | 1013 hPa | 0 mm | - | 0 W/m² | - |
| 1777516258 | 21.67° C | 10% | 1012.7 hPa | 0 mm | - | 0 W/m² | - |
| 1777509636 | 24.44° C | 9% | 1011.9 hPa | 0 mm | - | 83 W/m² | - |
| 1777500016 | 25° C | 10% | 1012.4 hPa | 0 mm | - | 786 W/m² | - |
| 1777498216 | 25° C | 10% | 1013 hPa | 0 mm | - | 879 W/m² | - |
| 1777497636 | 24.44° C | 10% | 1013.3 hPa | 0 mm | - | 904 W/m² | - |
| 1777493417 | 23.33° C | 10% | 1014.9 hPa | 0 mm | - | 1056 W/m² | - |
| 1777492817 | 23.33° C | 10% | 1015.1 hPa | 0 mm | - | 1069 W/m² | - |
| 1777491618 | 22.22° C | 10% | 1015.5 hPa | 0 mm | - | 1089 W/m² | - |
| 1777491018 | 22.22° C | 10% | 1015.7 hPa | 0 mm | - | 1095 W/m² | - |
| 1777488615 | 21.11° C | 11% | 1016.3 hPa | 0 mm | - | 1098 W/m² | - |
| 1777487415 | 20.56° C | 11% | 1016.8 hPa | 0 mm | - | 1084 W/m² | - |
| 1777485016 | 20° C | 12% | 1017.6 hPa | 0 mm | - | 1031 W/m² | - |
| 1777481417 | 17.78° C | 15% | 1018.3 hPa | 0 mm | - | 896 W/m² | - |
| 1777480217 | 17.22° C | 14% | 1018.5 hPa | 0 mm | - | 841 W/m² | - |
| 1777479017 | 16.67° C | 16% | 1018.6 hPa | 0 mm | - | 782 W/m² | - |
| 1777477217 | 16.11° C | 17% | 1019.1 hPa | 0 mm | - | 560 W/m² | - |
| 1777473016 | 12.78° C | 18% | 1019.2 hPa | 0 mm | - | 402 W/m² | - |
| 1777471216 | 10° C | 20% | 1018.8 hPa | 0 mm | - | 175 W/m² | - |
* Rain latest hour (hover to see other rain measurements)
** Current wind speed in m/s (hover to see current wind gust speed)